Time;durP1;ratioP1;P1;durP2;ratioP2;P2;SDS_P1;SDS_P2;PMS_P1;PMS_P2;Temp;Humidity;BMP_temperature;BMP_pressure;BME280_temperature;BME280_humidity;BME280_pressure;Samples;Min_cycle;Max_cycle;Signal;HPM_P1;HPM_P2
2021/12/03 00:01:28;;;;;;;2.20;0.90;;;;;;;;;;4906918;29;20055;-79
2021/12/03 00:04:14;;;;;;;1.42;0.60;;;;;;;;;;4901472;29;20032;-79
2021/12/03 00:07:01;;;;;;;1.13;0.70;;;;;;;;;;4910316;29;20042;-79
2021/12/03 00:09:48;;;;;;;1.40;0.75;;;;;;;;;;4910708;29;20040;-79
2021/12/03 00:12:35;;;;;;;2.50;0.95;;;;;;;;;;4914890;29;20032;-80
2021/12/03 00:15:23;;;;;;;2.10;1.33;;;;;;;;;;4916259;29;20058;-80
2021/12/03 00:18:10;;;;;;;2.17;0.68;;;;;;;;;;4909238;29;20030;-79
2021/12/03 00:20:57;;;;;;;2.22;0.95;;;;;;;;;;4900450;29;20036;-79
2021/12/03 00:23:43;;;;;;;2.47;0.90;;;;;;;;;;4912683;29;20374;-79
2021/12/03 00:26:30;;;;;;;2.42;1.00;;;;;;;;;;4915542;29;20447;-79
2021/12/03 00:29:17;;;;;;;1.75;0.70;;;;;;;;;;4909388;29;20040;-80
2021/12/03 00:32:04;;;;;;;1.58;0.85;;;;;;;;;;4915700;29;20519;-79
2021/12/03 00:34:50;;;;;;;1.92;0.77;;;;;;;;;;4915635;29;20424;-80
2021/12/03 00:37:38;;;;;;;1.67;0.70;;;;;;;;;;4907879;29;20043;-80
2021/12/03 00:40:28;;;;;;;1.08;0.50;;;;;;;;;;4911203;29;20028;-81
2021/12/03 00:43:15;;;;;;;2.15;0.70;;;;;;;;;;4917558;29;20040;-80
2021/12/03 00:46:06;;;;;;;2.72;0.73;;;;;;;;;;4897041;29;20036;-80
2021/12/03 00:48:54;;;;;;;1.30;0.70;;;;;;;;;;4914502;29;20043;-80
2021/12/03 00:51:41;;;;;;;2.03;0.80;;;;;;;;;;4909664;29;20025;-80
2021/12/03 00:54:28;;;;;;;3.03;0.80;;;;;;;;;;4912252;29;20048;-80
2021/12/03 00:57:14;;;;;;;0.80;0.52;;;;;;;;;;4913767;29;20036;-80
2021/12/03 01:00:01;;;;;;;2.15;0.88;;;;;;;;;;4915708;29;20055;-81
2021/12/03 01:02:48;;;;;;;1.35;0.60;;;;;;;;;;4907158;29;20429;-81
2021/12/03 01:05:35;;;;;;;2.15;0.50;;;;;;;;;;4915026;29;20047;-80
2021/12/03 01:08:22;;;;;;;0.98;0.52;;;;;;;;;;4911090;29;20044;-80
2021/12/03 01:11:09;;;;;;;1.42;0.68;;;;;;;;;;4909955;29;20032;-81
2021/12/03 01:14:00;;;;;;;1.27;0.60;;;;;;;;;;4912146;29;20428;-81
2021/12/03 01:16:47;;;;;;;1.20;0.60;;;;;;;;;;4910270;29;20050;-80
2021/12/03 01:19:34;;;;;;;1.58;0.70;;;;;;;;;;4907983;29;20413;-81
2021/12/03 01:22:21;;;;;;;1.50;0.60;;;;;;;;;;4913450;29;20032;-80
2021/12/03 01:25:09;;;;;;;2.45;0.88;;;;;;;;;;4908867;29;20036;-80
2021/12/03 01:27:58;;;;;;;1.90;0.70;;;;;;;;;;4910595;29;20032;-80
2021/12/03 01:30:45;;;;;;;2.35;0.80;;;;;;;;;;4900437;29;20032;-79
2021/12/03 01:33:32;;;;;;;2.10;1.02;;;;;;;;;;4907648;29;20512;-81
2021/12/03 01:36:19;;;;;;;2.72;0.52;;;;;;;;;;4909860;29;20067;-80
2021/12/03 01:39:07;;;;;;;1.02;0.50;;;;;;;;;;4914860;29;20507;-80
2021/12/03 01:41:53;;;;;;;1.25;0.50;;;;;;;;;;4915452;29;20048;-79
2021/12/03 01:44:40;;;;;;;1.08;0.57;;;;;;;;;;4914255;29;20029;-80
2021/12/03 01:47:27;;;;;;;1.33;0.60;;;;;;;;;;4909743;29;20032;-80
2021/12/03 01:50:14;;;;;;;0.98;0.43;;;;;;;;;;4914653;29;20038;-80
2021/12/03 01:53:01;;;;;;;1.15;0.52;;;;;;;;;;4913219;29;20039;-80
2021/12/03 01:55:48;;;;;;;1.23;0.57;;;;;;;;;;4894608;29;20525;-80
2021/12/03 01:58:34;;;;;;;2.28;0.60;;;;;;;;;;4911244;29;20038;-80
2021/12/03 02:01:23;;;;;;;1.30;0.80;;;;;;;;;;4913284;29;20028;-80
2021/12/03 02:04:10;;;;;;;0.93;0.40;;;;;;;;;;4911942;29;20047;-80
2021/12/03 02:06:57;;;;;;;1.83;0.40;;;;;;;;;;4913950;29;20512;-80
2021/12/03 02:09:44;;;;;;;1.30;0.50;;;;;;;;;;4913113;29;20061;-79
2021/12/03 02:12:30;;;;;;;2.38;0.60;;;;;;;;;;4913881;29;20052;-80
2021/12/03 02:15:17;;;;;;;1.02;0.43;;;;;;;;;;4909355;29;20040;-80
2021/12/03 02:18:05;;;;;;;1.90;0.50;;;;;;;;;;4911653;29;20039;-81
2021/12/03 02:20:52;;;;;;;1.08;0.50;;;;;;;;;;4905463;29;20040;-80
2021/12/03 02:23:39;;;;;;;1.65;0.50;;;;;;;;;;4899894;29;20032;-80
2021/12/03 02:26:26;;;;;;;1.23;0.50;;;;;;;;;;4913496;29;20032;-81
2021/12/03 02:29:13;;;;;;;0.93;0.40;;;;;;;;;;4913287;29;20069;-80
2021/12/03 02:32:00;;;;;;;1.02;0.43;;;;;;;;;;4908969;29;20040;-80
2021/12/03 02:34:46;;;;;;;1.88;0.50;;;;;;;;;;4899977;29;20059;-81
2021/12/03 02:37:33;;;;;;;0.88;0.40;;;;;;;;;;4913255;29;20032;-81
2021/12/03 02:40:21;;;;;;;1.52;0.98;;;;;;;;;;4913359;29;20043;-81
2021/12/03 02:43:08;;;;;;;1.30;0.52;;;;;;;;;;4912903;29;20489;-81
2021/12/03 02:45:57;;;;;;;0.85;0.32;;;;;;;;;;4912097;29;20040;-81
2021/12/03 02:48:44;;;;;;;1.42;0.65;;;;;;;;;;4905908;29;20043;-81
2021/12/03 02:51:30;;;;;;;1.80;0.47;;;;;;;;;;4909640;29;20044;-81
2021/12/03 02:54:17;;;;;;;1.23;0.45;;;;;;;;;;4913591;29;20036;-81
2021/12/03 02:57:04;;;;;;;0.63;0.30;;;;;;;;;;4913152;29;20054;-81
2021/12/03 02:59:51;;;;;;;1.85;0.50;;;;;;;;;;4914263;29;20032;-80
2021/12/03 03:02:38;;;;;;;0.90;0.50;;;;;;;;;;4915804;29;20037;-78
2021/12/03 03:05:26;;;;;;;2.58;0.60;;;;;;;;;;4913353;29;20520;-80
2021/12/03 03:08:13;;;;;;;0.40;0.30;;;;;;;;;;4908932;29;20044;-81
2021/12/03 03:11:02;;;;;;;1.13;0.65;;;;;;;;;;4912840;29;20050;-80
2021/12/03 03:13:50;;;;;;;0.57;0.38;;;;;;;;;;4913563;29;20538;-80
2021/12/03 03:16:37;;;;;;;1.13;0.38;;;;;;;;;;4912289;29;20408;-81
2021/12/03 03:19:24;;;;;;;0.93;0.30;;;;;;;;;;4900343;29;20037;-80
2021/12/03 03:22:11;;;;;;;1.05;0.30;;;;;;;;;;4906520;29;20044;-81
2021/12/03 03:24:59;;;;;;;0.77;0.40;;;;;;;;;;4908498;29;20059;-81
2021/12/03 03:27:47;;;;;;;0.35;0.20;;;;;;;;;;4912328;29;20033;-79
2021/12/03 03:30:34;;;;;;;0.75;0.40;;;;;;;;;;4911355;29;20047;-80
2021/12/03 03:33:21;;;;;;;1.08;0.35;;;;;;;;;;4897562;29;20031;-81
2021/12/03 03:36:07;;;;;;;0.68;0.32;;;;;;;;;;4901884;29;20534;-81
2021/12/03 03:38:54;;;;;;;0.60;0.40;;;;;;;;;;4911825;29;20060;-81
2021/12/03 03:41:42;;;;;;;0.25;0.25;;;;;;;;;;4918135;29;20035;-80
2021/12/03 03:44:29;;;;;;;0.98;0.40;;;;;;;;;;4910346;29;20032;-79
2021/12/03 03:47:15;;;;;;;1.45;0.38;;;;;;;;;;4910533;29;20051;-80
2021/12/03 03:50:02;;;;;;;0.82;0.40;;;;;;;;;;4913500;29;20040;-79
2021/12/03 03:52:50;;;;;;;0.35;0.20;;;;;;;;;;4914838;29;20031;-79
2021/12/03 03:55:37;;;;;;;1.02;0.38;;;;;;;;;;4916162;29;20497;-79
2021/12/03 03:58:24;;;;;;;0.88;0.28;;;;;;;;;;4917062;29;20036;-79
2021/12/03 04:01:11;;;;;;;1.40;0.30;;;;;;;;;;4912291;29;20055;-80
2021/12/03 04:03:58;;;;;;;1.65;0.40;;;;;;;;;;4906288;29;20044;-80
2021/12/03 04:06:45;;;;;;;0.47;0.28;;;;;;;;;;4915050;29;20035;-80
2021/12/03 04:09:31;;;;;;;0.55;0.30;;;;;;;;;;4917618;29;20032;-80
2021/12/03 04:12:18;;;;;;;1.45;0.40;;;;;;;;;;4914488;29;20048;-81
2021/12/03 04:15:09;;;;;;;1.13;0.40;;;;;;;;;;4914927;29;20062;-82
2021/12/03 04:17:56;;;;;;;0.40;0.30;;;;;;;;;;4904879;29;20370;-81
2021/12/03 04:20:43;;;;;;;0.68;0.32;;;;;;;;;;4911936;29;20058;-80
2021/12/03 04:23:30;;;;;;;0.50;0.20;;;;;;;;;;4916482;29;20036;-81
2021/12/03 04:26:16;;;;;;;0.85;0.30;;;;;;;;;;4914896;29;20040;-79
2021/12/03 04:29:03;;;;;;;0.77;0.35;;;;;;;;;;4911038;29;20035;-80
2021/12/03 04:31:50;;;;;;;0.52;0.20;;;;;;;;;;4912147;29;20043;-79
2021/12/03 04:34:36;;;;;;;0.98;0.30;;;;;;;;;;4911096;29;20036;-79
2021/12/03 04:37:23;;;;;;;1.25;0.30;;;;;;;;;;4911058;29;20028;-79
2021/12/03 04:40:11;;;;;;;0.93;0.30;;;;;;;;;;4908544;29;20040;-80
2021/12/03 04:42:58;;;;;;;2.83;0.40;;;;;;;;;;4897756;29;20041;-80
2021/12/03 04:45:46;;;;;;;5.95;0.40;;;;;;;;;;4911960;29;20032;-80
2021/12/03 04:48:32;;;;;;;0.32;0.13;;;;;;;;;;4909182;29;20044;-78
2021/12/03 04:51:19;;;;;;;1.85;0.20;;;;;;;;;;4912228;29;20036;-80
2021/12/03 04:54:06;;;;;;;1.15;0.40;;;;;;;;;;4912893;29;20051;-78
2021/12/03 04:56:54;;;;;;;0.77;0.20;;;;;;;;;;4908120;29;20032;-78
2021/12/03 04:59:41;;;;;;;2.28;0.25;;;;;;;;;;4912204;29;20040;-79
2021/12/03 05:02:27;;;;;;;1.05;0.20;;;;;;;;;;4911623;29;20063;-79
2021/12/03 05:05:14;;;;;;;0.80;0.30;;;;;;;;;;4912015;29;20055;-79
2021/12/03 05:08:04;;;;;;;0.60;0.30;;;;;;;;;;4891851;29;20032;-79
2021/12/03 05:10:51;;;;;;;1.33;0.50;;;;;;;;;;4912464;29;20039;-79
2021/12/03 05:13:37;;;;;;;1.15;0.38;;;;;;;;;;4912032;29;20079;-79
2021/12/03 05:16:24;;;;;;;0.85;0.40;;;;;;;;;;4910046;29;20420;-80
2021/12/03 05:19:11;;;;;;;1.52;0.40;;;;;;;;;;4914622;29;20412;-79
2021/12/03 05:21:57;;;;;;;0.32;0.30;;;;;;;;;;4914645;29;20038;-80
2021/12/03 05:24:46;;;;;;;0.60;0.30;;;;;;;;;;4895699;29;20048;-79
2021/12/03 05:27:33;;;;;;;0.43;0.30;;;;;;;;;;4915116;29;20032;-79
2021/12/03 05:30:20;;;;;;;0.70;0.30;;;;;;;;;;4906156;29;20043;-79
2021/12/03 05:33:07;;;;;;;0.77;0.32;;;;;;;;;;4914120;29;20040;-79
2021/12/03 05:35:54;;;;;;;1.33;0.25;;;;;;;;;;4914615;29;20062;-79
2021/12/03 05:38:40;;;;;;;0.43;0.28;;;;;;;;;;4911884;29;20024;-80
2021/12/03 05:41:27;;;;;;;1.20;0.50;;;;;;;;;;4910228;29;20400;-79
2021/12/03 05:44:14;;;;;;;0.30;0.10;;;;;;;;;;4912421;29;20029;-79
2021/12/03 05:47:01;;;;;;;0.25;0.22;;;;;;;;;;4912302;29;20492;-79
2021/12/03 05:49:47;;;;;;;0.38;0.28;;;;;;;;;;4907691;29;20030;-78
2021/12/03 05:52:34;;;;;;;0.55;0.40;;;;;;;;;;4910456;29;20032;-79
2021/12/03 05:55:21;;;;;;;1.08;0.30;;;;;;;;;;4905600;29;20055;-77
2021/12/03 05:58:08;;;;;;;0.70;0.30;;;;;;;;;;4908397;29;20040;-80
2021/12/03 06:00:55;;;;;;;0.73;0.30;;;;;;;;;;4911391;29;20032;-80
2021/12/03 06:03:42;;;;;;;0.57;0.28;;;;;;;;;;4908979;29;20025;-80
2021/12/03 06:06:28;;;;;;;0.50;0.22;;;;;;;;;;4909698;29;20050;-80
2021/12/03 06:09:15;;;;;;;0.25;0.10;;;;;;;;;;4910134;29;20056;-81
2021/12/03 06:12:02;;;;;;;1.70;0.50;;;;;;;;;;4902429;29;20042;-83
2021/12/03 06:14:49;;;;;;;0.73;0.30;;;;;;;;;;4912495;29;20040;-79
2021/12/03 06:17:36;;;;;;;3.53;0.43;;;;;;;;;;4894755;29;20393;-79
2021/12/03 06:20:22;;;;;;;1.55;0.50;;;;;;;;;;4913579;29;20084;-79
2021/12/03 06:23:09;;;;;;;0.75;0.20;;;;;;;;;;4899976;29;20722;-80
2021/12/03 06:25:57;;;;;;;0.63;0.38;;;;;;;;;;4911221;29;20036;-79
2021/12/03 06:28:44;;;;;;;1.92;0.50;;;;;;;;;;4910805;29;20036;-79
2021/12/03 06:31:31;;;;;;;0.60;0.20;;;;;;;;;;4905923;29;20500;-79
2021/12/03 06:34:17;;;;;;;1.80;0.88;;;;;;;;;;4910161;29;20048;-78
2021/12/03 06:37:04;;;;;;;1.15;0.20;;;;;;;;;;4910742;29;20058;-78
2021/12/03 06:39:51;;;;;;;1.52;0.30;;;;;;;;;;4913171;29;20059;-79
2021/12/03 06:42:38;;;;;;;0.90;0.30;;;;;;;;;;4907843;29;20036;-79
2021/12/03 06:45:24;;;;;;;1.42;0.40;;;;;;;;;;4911647;29;20039;-79
2021/12/03 06:48:11;;;;;;;0.75;0.30;;;;;;;;;;4911182;29;20051;-79
2021/12/03 06:50:58;;;;;;;0.90;0.35;;;;;;;;;;4912316;29;20051;-79
2021/12/03 06:54:01;;;;;;;1.02;0.35;;;;;;;;;;4912929;29;20036;-79
2021/12/03 06:56:48;;;;;;;1.10;0.20;;;;;;;;;;4910251;29;20051;-79
2021/12/03 06:59:36;;;;;;;0.70;0.30;;;;;;;;;;4911246;29;20032;-79
2021/12/03 07:02:23;;;;;;;0.65;0.20;;;;;;;;;;4911358;29;20047;-79
2021/12/03 07:05:10;;;;;;;0.35;0.30;;;;;;;;;;4910191;29;20055;-80
2021/12/03 07:07:57;;;;;;;1.10;0.40;;;;;;;;;;4911237;29;20076;-80
2021/12/03 07:10:44;;;;;;;0.70;0.25;;;;;;;;;;4911498;29;20034;-79
2021/12/03 07:13:31;;;;;;;0.82;0.35;;;;;;;;;;4914868;29;20051;-80
2021/12/03 07:16:18;;;;;;;1.35;0.20;;;;;;;;;;4911977;29;20048;-80
2021/12/03 07:19:05;;;;;;;1.17;0.40;;;;;;;;;;4915518;29;20523;-79
2021/12/03 07:21:51;;;;;;;1.60;0.28;;;;;;;;;;4912101;29;20044;-80
2021/12/03 07:24:38;;;;;;;1.50;0.40;;;;;;;;;;4917139;29;20032;-79
2021/12/03 07:27:25;;;;;;;1.13;0.30;;;;;;;;;;4902427;29;20070;-80
2021/12/03 07:30:13;;;;;;;1.17;0.30;;;;;;;;;;4921414;29;20025;-80
2021/12/03 07:33:01;;;;;;;2.33;0.30;;;;;;;;;;4913875;29;20048;-79
2021/12/03 07:35:48;;;;;;;0.38;0.30;;;;;;;;;;4912633;29;20052;-79
2021/12/03 07:38:35;;;;;;;0.88;0.20;;;;;;;;;;4902042;29;20433;-80
2021/12/03 07:41:22;;;;;;;0.88;0.30;;;;;;;;;;4912106;29;20050;-79
2021/12/03 07:44:09;;;;;;;0.80;0.35;;;;;;;;;;4914657;29;20033;-79
2021/12/03 07:46:56;;;;;;;1.42;0.45;;;;;;;;;;4916843;29;20413;-79
2021/12/03 07:49:44;;;;;;;0.50;0.30;;;;;;;;;;4907630;29;20063;-78
2021/12/03 07:52:32;;;;;;;0.57;0.40;;;;;;;;;;4904136;29;20047;-79
2021/12/03 07:55:18;;;;;;;0.50;0.20;;;;;;;;;;4916846;29;20070;-79
2021/12/03 07:58:05;;;;;;;1.48;0.40;;;;;;;;;;4911826;29;20035;-79
2021/12/03 08:00:54;;;;;;;1.25;0.40;;;;;;;;;;4911904;29;20028;-79
2021/12/03 08:03:41;;;;;;;1.67;0.30;;;;;;;;;;4906494;29;20032;-79
2021/12/03 08:06:28;;;;;;;1.23;0.47;;;;;;;;;;4914321;29;20043;-80
2021/12/03 08:09:15;;;;;;;0.60;0.20;;;;;;;;;;4908848;29;20044;-78
2021/12/03 08:12:01;;;;;;;0.75;0.40;;;;;;;;;;4911934;29;20031;-79
2021/12/03 08:14:48;;;;;;;1.33;0.50;;;;;;;;;;4911055;29;20040;-79
2021/12/03 08:17:35;;;;;;;3.15;0.50;;;;;;;;;;4913390;29;20047;-81
2021/12/03 08:20:22;;;;;;;1.33;0.43;;;;;;;;;;4917205;29;20038;-81
2021/12/03 08:23:08;;;;;;;1.25;0.40;;;;;;;;;;4911095;29;20488;-81
2021/12/03 08:25:55;;;;;;;0.90;0.38;;;;;;;;;;4912738;29;20044;-80
2021/12/03 08:28:42;;;;;;;1.70;0.52;;;;;;;;;;4914420;29;20400;-80
2021/12/03 08:31:29;;;;;;;0.88;0.43;;;;;;;;;;4909993;29;20516;-80
2021/12/03 08:34:15;;;;;;;0.98;0.30;;;;;;;;;;4906009;29;20036;-81
2021/12/03 08:37:02;;;;;;;1.10;0.40;;;;;;;;;;4910800;29;20058;-81
2021/12/03 08:39:49;;;;;;;0.65;0.30;;;;;;;;;;4908380;29;20855;-85
2021/12/03 08:42:36;;;;;;;0.98;0.50;;;;;;;;;;4911784;29;20043;-85
2021/12/03 08:45:22;;;;;;;1.33;0.57;;;;;;;;;;4913410;29;20028;-85
2021/12/03 08:48:09;;;;;;;2.63;0.50;;;;;;;;;;4913837;29;20067;-85
2021/12/03 08:56:57;;;;;;;1.00;0.38;;;;;;;;;;4907349;29;20035;-83
2021/12/03 08:59:44;;;;;;;0.68;0.40;;;;;;;;;;4914426;29;20021;-83
2021/12/03 09:02:30;;;;;;;3.17;0.60;;;;;;;;;;4916163;29;20044;-83
2021/12/03 09:05:17;;;;;;;1.15;0.50;;;;;;;;;;4905807;29;20067;-83
2021/12/03 09:08:04;;;;;;;0.75;0.43;;;;;;;;;;4921064;29;20372;-83
2021/12/03 09:10:51;;;;;;;0.38;0.30;;;;;;;;;;4916138;29;20143;-84
2021/12/03 09:13:39;;;;;;;0.98;0.45;;;;;;;;;;4911263;29;20042;-84
2021/12/03 09:16:26;;;;;;;1.45;0.40;;;;;;;;;;4908026;29;20036;-84
2021/12/03 09:19:20;;;;;;;1.40;0.50;;;;;;;;;;4908664;29;20062;-84
2021/12/03 09:22:09;;;;;;;0.70;0.30;;;;;;;;;;4916457;29;20039;-85
2021/12/03 09:24:56;;;;;;;1.55;0.40;;;;;;;;;;4887600;29;20039;-84
2021/12/03 09:27:43;;;;;;;1.10;0.50;;;;;;;;;;4913473;29;20040;-84
2021/12/03 09:30:39;;;;;;;1.33;0.50;;;;;;;;;;4904249;29;20036;-85
2021/12/03 09:33:28;;;;;;;0.95;0.50;;;;;;;;;;4909477;29;20032;-84
2021/12/03 09:36:15;;;;;;;1.88;0.40;;;;;;;;;;4909972;29;20060;-84
2021/12/03 09:39:03;;;;;;;0.60;0.43;;;;;;;;;;4900366;29;20497;-85
2021/12/03 09:41:52;;;;;;;3.90;0.50;;;;;;;;;;4908441;29;20051;-84
2021/12/03 09:44:46;;;;;;;1.52;0.30;;;;;;;;;;4914992;29;20035;-83
2021/12/03 09:47:33;;;;;;;0.57;0.35;;;;;;;;;;4911437;29;20571;-83
2021/12/03 09:50:19;;;;;;;0.88;0.50;;;;;;;;;;4914598;29;20063;-83
2021/12/03 09:53:34;;;;;;;0.50;0.30;;;;;;;;;;4905609;29;20040;-83
2021/12/03 09:56:21;;;;;;;1.92;0.50;;;;;;;;;;4901122;29;20048;-84
2021/12/03 10:02:23;;;;;;;1.35;0.50;;;;;;;;;;4908419;29;20039;-84
2021/12/03 10:14:37;;;;;;;1.00;0.60;;;;;;;;;;4892563;29;20045;-84
2021/12/03 10:29:12;;;;;;;0.73;0.55;;;;;;;;;;4937602;29;20091;-85
2021/12/03 13:21:48;;;;;;;1.20;0.43;;;;;;;;;;4907764;29;20041;-76
2021/12/03 13:57:11;;;;;;;0.45;0.30;;;;;;;;;;5062568;28;20049;-78
2021/12/03 13:59:58;;;;;;;0.93;0.40;;;;;;;;;;5062172;28;20474;-78
2021/12/03 14:39:43;;;;;;;0.82;0.43;;;;;;;;;;5060398;28;20115;-79
2021/12/03 14:46:05;;;;;;;1.75;0.47;;;;;;;;;;5043757;28;20064;-80
2021/12/03 14:49:23;;;;;;;0.98;0.32;;;;;;;;;;5040373;28;20026;-79
2021/12/03 14:52:32;;;;;;;0.82;0.50;;;;;;;;;;5045830;28;20056;-79
2021/12/03 14:55:27;;;;;;;0.98;0.40;;;;;;;;;;5047844;28;20028;-79
2021/12/03 14:58:23;;;;;;;1.10;0.43;;;;;;;;;;5043307;28;20040;-79
2021/12/03 15:01:21;;;;;;;0.60;0.50;;;;;;;;;;5046546;28;20497;-79
2021/12/03 15:07:17;;;;;;;2.53;0.60;;;;;;;;;;5047229;28;20025;-79
2021/12/03 15:10:08;;;;;;;1.58;0.60;;;;;;;;;;5043534;28;20037;-79
2021/12/03 15:33:54;;;;;;;1.42;0.50;;;;;;;;;;5043432;28;20496;-80
2021/12/03 16:12:59;;;;;;;1.95;0.47;;;;;;;;;;5050749;28;20043;-79
2021/12/03 16:24:57;;;;;;;1.17;0.50;;;;;;;;;;5045302;28;20047;-79
2021/12/03 16:52:30;;;;;;;1.88;0.52;;;;;;;;;;5048492;28;20037;-78
2021/12/03 16:55:17;;;;;;;0.90;0.40;;;;;;;;;;5042548;28;20404;-79
2021/12/03 16:58:04;;;;;;;0.63;0.40;;;;;;;;;;5050701;28;20039;-78
2021/12/03 17:00:58;;;;;;;0.60;0.43;;;;;;;;;;5050171;28;20029;-78
2021/12/03 17:53:03;;;;;;;0.40;0.40;;;;;;;;;;5036315;28;20048;-78
2021/12/03 17:55:33;;;;;;;0.82;0.40;;;;;;;;;;5063798;28;20028;-78
2021/12/03 18:01:26;;;;;;;1.38;0.60;;;;;;;;;;5063710;28;20033;-78
2021/12/03 18:04:23;;;;;;;1.63;0.70;;;;;;;;;;5069230;28;20041;-78
2021/12/03 18:07:27;;;;;;;3.03;0.80;;;;;;;;;;5060520;28;20121;-78
2021/12/03 18:49:42;;;;;;;1.67;0.88;;;;;;;;;;5066864;28;20046;-79
2021/12/03 18:52:49;;;;;;;1.08;0.70;;;;;;;;;;5073438;28;20048;-79
2021/12/03 18:58:27;;;;;;;1.48;0.80;;;;;;;;;;5082033;28;20043;-78
2021/12/03 19:01:14;;;;;;;1.23;0.68;;;;;;;;;;5090345;28;20036;-78
2021/12/03 19:07:01;;;;;;;1.17;0.80;;;;;;;;;;5089532;28;20030;-78
2021/12/03 19:09:51;;;;;;;1.02;0.82;;;;;;;;;;5091870;28;20024;-78
2021/12/03 19:12:41;;;;;;;1.48;0.60;;;;;;;;;;5084836;28;20063;-78
2021/12/03 19:15:28;;;;;;;1.75;0.70;;;;;;;;;;5089924;28;20028;-78
2021/12/03 19:18:15;;;;;;;2.33;0.70;;;;;;;;;;5092041;28;20024;-77
2021/12/03 19:21:07;;;;;;;1.90;0.80;;;;;;;;;;5086051;28;20613;-78
2021/12/03 19:23:57;;;;;;;1.02;0.70;;;;;;;;;;5091888;28;20411;-78
2021/12/03 19:26:44;;;;;;;2.65;0.73;;;;;;;;;;5087209;28;20039;-78
2021/12/03 19:29:32;;;;;;;2.45;0.90;;;;;;;;;;5088128;28;20522;-78
2021/12/03 19:32:25;;;;;;;1.38;0.75;;;;;;;;;;5086471;28;20519;-78
2021/12/03 19:35:11;;;;;;;1.38;0.90;;;;;;;;;;5068919;28;20029;-78
2021/12/03 19:38:01;;;;;;;1.23;0.75;;;;;;;;;;5089730;28;20062;-78
2021/12/03 19:41:04;;;;;;;1.63;0.90;;;;;;;;;;5083659;28;20028;-78
2021/12/03 19:43:54;;;;;;;1.65;0.70;;;;;;;;;;5092015;28;20044;-78
2021/12/03 19:46:45;;;;;;;1.00;0.65;;;;;;;;;;5089047;28;20024;-77
2021/12/03 19:49:52;;;;;;;2.67;1.00;;;;;;;;;;5080158;28;20039;-79
2021/12/03 19:52:48;;;;;;;1.77;0.70;;;;;;;;;;5093543;28;20555;-77
2021/12/03 19:55:37;;;;;;;2.00;1.00;;;;;;;;;;5086544;28;20042;-77
2021/12/03 19:58:23;;;;;;;2.22;0.90;;;;;;;;;;5089460;28;20038;-78
2021/12/03 20:01:10;;;;;;;1.00;0.75;;;;;;;;;;5090887;28;20493;-78
2021/12/03 20:03:57;;;;;;;2.15;1.08;;;;;;;;;;5090969;28;20035;-78
2021/12/03 20:06:44;;;;;;;1.27;0.60;;;;;;;;;;5090613;28;20046;-78
2021/12/03 20:10:36;;;;;;;1.90;0.90;;;;;;;;;;5093213;28;20039;-78
2021/12/03 20:12:48;;;;;;;1.90;0.90;;;;;;;;;;5077663;28;20044;-79
2021/12/03 20:19:13;;;;;;;1.92;0.70;;;;;;;;;;5071794;28;20028;-78
2021/12/03 20:22:08;;;;;;;1.40;0.82;;;;;;;;;;5081035;28;20043;-78
2021/12/03 20:27:51;;;;;;;1.25;0.80;;;;;;;;;;5089617;28;20512;-79
2021/12/03 20:39:23;;;;;;;1.70;0.90;;;;;;;;;;5088030;28;20034;-79
2021/12/03 20:42:28;;;;;;;1.58;0.75;;;;;;;;;;5080610;28;20039;-79
2021/12/03 21:09:13;;;;;;;1.15;0.60;;;;;;;;;;5099147;28;20028;-79
2021/12/03 21:12:03;;;;;;;1.20;0.73;;;;;;;;;;5099358;28;20051;-78
2021/12/03 21:14:57;;;;;;;2.28;0.98;;;;;;;;;;5089632;28;20024;-78
2021/12/03 21:21:30;;;;;;;0.93;0.70;;;;;;;;;;5091326;28;20566;-78
2021/12/03 21:23:46;;;;;;;1.85;0.82;;;;;;;;;;5085635;28;20495;-78
2021/12/03 21:26:34;;;;;;;1.65;0.93;;;;;;;;;;5094504;28;20044;-77
2021/12/03 21:29:36;;;;;;;1.48;0.77;;;;;;;;;;5101731;28;20020;-77
2021/12/03 21:44:01;;;;;;;2.60;0.70;;;;;;;;;;5112761;28;20028;-77
2021/12/03 21:46:48;;;;;;;1.30;0.63;;;;;;;;;;5104167;28;20036;-78
2021/12/03 21:49:35;;;;;;;1.00;0.60;;;;;;;;;;5093538;28;20043;-79
2021/12/03 21:52:24;;;;;;;1.10;0.60;;;;;;;;;;5095507;28;20043;-78
2021/12/03 21:55:10;;;;;;;1.70;0.90;;;;;;;;;;5105641;28;20058;-77
2021/12/03 21:57:57;;;;;;;1.20;0.68;;;;;;;;;;5085353;28;20032;-78
2021/12/03 22:00:44;;;;;;;2.13;0.82;;;;;;;;;;5080599;28;20537;-78
2021/12/03 22:03:34;;;;;;;1.48;0.70;;;;;;;;;;5090318;28;20035;-78
2021/12/03 22:06:25;;;;;;;1.35;0.70;;;;;;;;;;5091006;28;20032;-78
2021/12/03 22:09:13;;;;;;;1.42;0.77;;;;;;;;;;5082718;28;20042;-78
2021/12/03 22:12:00;;;;;;;0.95;0.65;;;;;;;;;;5072673;28;20125;-78
2021/12/03 22:14:47;;;;;;;1.35;0.60;;;;;;;;;;5080600;28;20476;-78
2021/12/03 22:17:34;;;;;;;1.60;0.80;;;;;;;;;;5094681;28;20039;-78
2021/12/03 22:20:21;;;;;;;1.13;0.75;;;;;;;;;;5069534;28;20020;-78
2021/12/03 22:23:09;;;;;;;2.50;0.77;;;;;;;;;;5078083;28;20034;-78
2021/12/03 22:25:56;;;;;;;0.95;0.63;;;;;;;;;;5093334;28;20032;-79
2021/12/03 22:28:43;;;;;;;2.20;0.70;;;;;;;;;;5083478;28;20389;-79
2021/12/03 22:31:30;;;;;;;1.13;0.65;;;;;;;;;;5093210;28;20088;-78
2021/12/03 22:34:16;;;;;;;1.90;0.65;;;;;;;;;;5083057;28;20408;-79
2021/12/03 22:37:03;;;;;;;1.30;0.60;;;;;;;;;;5083211;28;20042;-77
2021/12/03 22:39:50;;;;;;;1.20;0.70;;;;;;;;;;5091859;28;20024;-78
2021/12/03 22:42:37;;;;;;;1.98;0.73;;;;;;;;;;5086487;28;20051;-78
2021/12/03 22:45:29;;;;;;;0.88;0.68;;;;;;;;;;5074283;28;20035;-77
2021/12/03 22:54:38;;;;;;;1.30;0.70;;;;;;;;;;5086679;28;20507;-78
2021/12/03 22:57:25;;;;;;;0.90;0.60;;;;;;;;;;5074514;28;20044;-78
2021/12/03 23:00:31;;;;;;;1.25;0.65;;;;;;;;;;5068011;28;20380;-78
2021/12/03 23:03:18;;;;;;;0.88;0.63;;;;;;;;;;5091646;28;20479;-78
2021/12/03 23:06:05;;;;;;;1.25;0.90;;;;;;;;;;5087318;28;20062;-79
2021/12/03 23:08:52;;;;;;;1.05;0.70;;;;;;;;;;5067671;28;20031;-79
2021/12/03 23:11:38;;;;;;;0.68;0.57;;;;;;;;;;5091798;28;20032;-78
2021/12/03 23:14:26;;;;;;;1.15;0.70;;;;;;;;;;5081391;28;20036;-78
2021/12/03 23:17:13;;;;;;;2.17;0.77;;;;;;;;;;5092379;28;20031;-78
2021/12/03 23:19:59;;;;;;;1.13;0.60;;;;;;;;;;5087271;28;20031;-78
2021/12/03 23:22:46;;;;;;;1.33;0.70;;;;;;;;;;5090226;28;20024;-78
2021/12/03 23:25:33;;;;;;;1.63;0.70;;;;;;;;;;5091542;28;20068;-78
2021/12/03 23:28:21;;;;;;;1.45;0.70;;;;;;;;;;5079807;28;20032;-78
2021/12/03 23:31:08;;;;;;;1.67;0.70;;;;;;;;;;5079801;28;20051;-78
2021/12/03 23:33:56;;;;;;;1.20;0.77;;;;;;;;;;5084331;28;20110;-78
2021/12/03 23:36:44;;;;;;;1.38;0.70;;;;;;;;;;5087301;28;20042;-79
2021/12/03 23:39:33;;;;;;;1.38;0.70;;;;;;;;;;5079982;28;20040;-79
2021/12/03 23:42:19;;;;;;;1.60;0.80;;;;;;;;;;5076438;28;20459;-78
2021/12/03 23:45:06;;;;;;;1.60;0.68;;;;;;;;;;5092121;28;20036;-78
2021/12/03 23:47:53;;;;;;;0.93;0.60;;;;;;;;;;5077722;28;20040;-78
2021/12/03 23:50:40;;;;;;;1.27;0.70;;;;;;;;;;5072755;28;20032;-78
2021/12/03 23:53:27;;;;;;;1.15;0.80;;;;;;;;;;5090630;28;20031;-79
2021/12/03 23:56:14;;;;;;;1.08;0.77;;;;;;;;;;5086092;28;20493;-79
2021/12/03 23:59:01;;;;;;;0.90;0.60;;;;;;;;;;5085791;28;20040;-79
